Pagrindinis puslapis
METAR-TAF:

METAR-TAF

Oro uostai :

Benson, Anglija

platuma: 51-37N, ilguma: 001-05W, Aukštis: 63 m

Dabartinis oras

Ataskaita buvo paskelbta 38 minutes, ne 22:20 UTC
Vėjas 8 kt iš Pietų
Temperatūra 4°C
Drėgmė 93%
Slėgis 991 hPa
Matomumas 10 km arba daugiau
nėra debesų žemiau 1500 m ir nėra kamuolinių lietaus debesų

METAR: EGUB 272220Z 19008KT CAVOK 04/03 Q0991 TEMPO 7000 SHRA BKN020 RMK BLU TEMPO WHT

Laikas: 22:58 (22:58 UTC)

Prognozė

Ataskaita buvo paskelbta 3 valandos ir 15 minutes, ne 19:43 UTC
Prognozė galioja nuo 27 metu 21 UTC su 27 metu 24 UTC
Vėjas 8 kt iš Pietų
Matomumas 10 km arba daugiau
Išsisklaidę debesys ne aukštis 3000 ft
Laikinai
nuo 27 metu 21 UTC su 27 metu 24 UTC
Išsisklaidę debesys ne aukštis 1500 ft
lietus
Tikimybė 30% :
Laikinai
nuo 27 metu 21 UTC su 27 metu 24 UTC
Matomumas: 4000 m
Su prošvaistėmis ne aukštis 1200 ft, Liūtiniai kamuoliniai debesys.
lietus

TAF: EGUB 271943Z 2721/2724 19008KT 9999 SCT030 TEMPO 2721/2724 -SHRA SCT015 PROB30 TEMPO 2721/2724 4000 SHRA BKN012CB

Orai ataskaitas ir orų prognozės (METAR, TAF).

turimą stotys yra geltonos ir raudonos taškus žemėlapyje.

Perkelti pele per norėdami pamatyti stoties vardą.

Tada spustelėkite, norėdami matyti oro stebėjimo ir prognozės.

Norėdami pakeisti žemėlapį: spustelėkite ant žalios mygtukų su juodo kryžiaus žemyn,; žalią mygtuką su brūkšneliu, jei norite nutolinti; arba žalių rodyklių gretimoms žemėlapius.


METAR-TAF: